sensor_id;sensor_type;location;lat;lon;timestamp;pressure;altitude;pressure_sealevel;temperature;humidity
3132;BME280;62090;52.330;9.104;2023-02-14T00:00:31;103071.31;;;4.82;93.87
3132;BME280;62090;52.330;9.104;2023-02-14T00:03:03;103071.19;;;4.70;93.21
3132;BME280;62090;52.330;9.104;2023-02-14T00:05:33;103038.28;;;4.50;94.41
3132;BME280;62090;52.330;9.104;2023-02-14T00:08:03;103046.19;;;4.44;94.84
3132;BME280;62090;52.330;9.104;2023-02-14T00:10:32;103062.13;;;4.43;94.52
3132;BME280;62090;52.330;9.104;2023-02-14T00:13:02;103056.41;;;4.36;95.59
3132;BME280;62090;52.330;9.104;2023-02-14T00:15:31;103057.44;;;4.38;96.05
3132;BME280;62090;52.330;9.104;2023-02-14T00:17:59;103069.06;;;4.46;95.60
3132;BME280;62090;52.330;9.104;2023-02-14T00:20:31;103058.44;;;4.40;95.56
3132;BME280;62090;52.330;9.104;2023-02-14T00:23:02;103051.50;;;4.37;95.54
3132;BME280;62090;52.330;9.104;2023-02-14T00:25:32;103036.50;;;4.39;95.09
3132;BME280;62090;52.330;9.104;2023-02-14T00:28:02;103068.31;;;4.47;96.72
3132;BME280;62090;52.330;9.104;2023-02-14T00:30:33;103032.28;;;4.29;96.53
3132;BME280;62090;52.330;9.104;2023-02-14T00:33:03;103057.28;;;4.36;96.63
3132;BME280;62090;52.330;9.104;2023-02-14T00:35:38;103031.63;;;4.21;97.26
3132;BME280;62090;52.330;9.104;2023-02-14T00:38:08;103060.38;;;4.23;98.04
3132;BME280;62090;52.330;9.104;2023-02-14T00:40:38;103064.19;;;4.29;98.00
3132;BME280;62090;52.330;9.104;2023-02-14T00:43:08;103068.63;;;4.31;97.62
3132;BME280;62090;52.330;9.104;2023-02-14T00:45:37;103057.25;;;4.26;98.86
3132;BME280;62090;52.330;9.104;2023-02-14T00:48:07;103048.78;;;4.25;99.51
3132;BME280;62090;52.330;9.104;2023-02-14T00:50:39;103036.72;;;4.32;98.84
3132;BME280;62090;52.330;9.104;2023-02-14T00:53:11;103072.63;;;4.48;99.00
3132;BME280;62090;52.330;9.104;2023-02-14T00:55:43;103075.19;;;4.58;98.10
3132;BME280;62090;52.330;9.104;2023-02-14T00:58:14;103073.69;;;4.60;97.13
3132;BME280;62090;52.330;9.104;2023-02-14T01:00:43;103069.00;;;4.54;96.75
3132;BME280;62090;52.330;9.104;2023-02-14T01:03:13;103050.47;;;4.35;96.84
3132;BME280;62090;52.330;9.104;2023-02-14T01:05:46;103053.13;;;4.37;96.62
3132;BME280;62090;52.330;9.104;2023-02-14T01:08:16;103019.75;;;4.20;96.48
3132;BME280;62090;52.330;9.104;2023-02-14T01:10:46;103062.78;;;4.51;95.70
3132;BME280;62090;52.330;9.104;2023-02-14T01:13:16;103051.41;;;4.46;94.74
3132;BME280;62090;52.330;9.104;2023-02-14T01:15:48;103059.84;;;4.46;94.40
3132;BME280;62090;52.330;9.104;2023-02-14T01:18:18;103075.50;;;4.42;94.36
3132;BME280;62090;52.330;9.104;2023-02-14T01:20:50;103068.44;;;4.38;93.82
3132;BME280;62090;52.330;9.104;2023-02-14T01:23:20;103044.31;;;4.13;94.13
3132;BME280;62090;52.330;9.104;2023-02-14T01:25:49;103051.03;;;4.12;93.64
3132;BME280;62090;52.330;9.104;2023-02-14T01:28:19;103080.13;;;4.28;94.05
3132;BME280;62090;52.330;9.104;2023-02-14T01:30:49;103035.41;;;3.98;93.89
3132;BME280;62090;52.330;9.104;2023-02-14T01:33:18;103076.31;;;4.22;94.14
3132;BME280;62090;52.330;9.104;2023-02-14T01:35:50;103076.16;;;4.21;94.69
3132;BME280;62090;52.330;9.104;2023-02-14T01:38:20;103042.78;;;4.05;94.69
3132;BME280;62090;52.330;9.104;2023-02-14T01:40:50;103079.22;;;4.27;93.49
3132;BME280;62090;52.330;9.104;2023-02-14T01:43:19;103075.41;;;4.22;92.46
3132;BME280;62090;52.330;9.104;2023-02-14T01:45:49;103030.25;;;3.96;91.77
3132;BME280;62090;52.330;9.104;2023-02-14T01:48:20;103057.56;;;4.10;91.33
3132;BME280;62090;52.330;9.104;2023-02-14T01:50:53;103080.06;;;4.17;90.92
3132;BME280;62090;52.330;9.104;2023-02-14T01:53:27;103074.13;;;4.17;90.77
3132;BME280;62090;52.330;9.104;2023-02-14T01:56:01;103073.84;;;4.14;90.21
3132;BME280;62090;52.330;9.104;2023-02-14T01:58:35;103079.19;;;4.17;90.48
3132;BME280;62090;52.330;9.104;2023-02-14T02:01:06;103054.25;;;4.01;90.48
3132;BME280;62090;52.330;9.104;2023-02-14T02:03:35;103076.84;;;4.10;90.24
3132;BME280;62090;52.330;9.104;2023-02-14T02:06:14;103006.22;;;3.62;90.74
3132;BME280;62090;52.330;9.104;2023-02-14T02:08:51;103022.38;;;3.64;91.30
3132;BME280;62090;52.330;9.104;2023-02-14T02:11:24;103078.19;;;3.96;92.57
3132;BME280;62090;52.330;9.104;2023-02-14T02:13:54;103071.63;;;3.98;93.04
3132;BME280;62090;52.330;9.104;2023-02-14T02:16:34;103061.28;;;3.95;93.88
3132;BME280;62090;52.330;9.104;2023-02-14T02:19:26;103075.38;;;3.93;95.40
3132;BME280;62090;52.330;9.104;2023-02-14T02:22:16;103069.59;;;3.94;95.46
3132;BME280;62090;52.330;9.104;2023-02-14T02:24:55;103066.25;;;3.85;97.98
3132;BME280;62090;52.330;9.104;2023-02-14T02:27:41;103057.25;;;3.78;96.73
3132;BME280;62090;52.330;9.104;2023-02-14T02:30:38;103055.94;;;3.55;98.80
3132;BME280;62090;52.330;9.104;2023-02-14T02:37:01;103031.16;;;3.40;100.00
3132;BME280;62090;52.330;9.104;2023-02-14T02:39:45;103019.59;;;3.43;100.00
3132;BME280;62090;52.330;9.104;2023-02-14T02:42:23;103025.19;;;3.49;99.81
3132;BME280;62090;52.330;9.104;2023-02-14T02:45:04;103020.81;;;3.56;99.38
3132;BME280;62090;52.330;9.104;2023-02-14T02:47:40;103042.75;;;3.57;99.28
3132;BME280;62090;52.330;9.104;2023-02-14T02:50:20;103033.75;;;3.51;98.68
3132;BME280;62090;52.330;9.104;2023-02-14T02:53:13;102987.28;;;3.38;96.54
3132;BME280;62090;52.330;9.104;2023-02-14T02:55:50;103022.44;;;3.56;97.74
3132;BME280;62090;52.330;9.104;2023-02-14T02:58:35;103022.72;;;3.59;98.61
3132;BME280;62090;52.330;9.104;2023-02-14T03:01:09;103015.41;;;3.62;98.17
3132;BME280;62090;52.330;9.104;2023-02-14T03:03:41;103005.00;;;3.49;99.27
3132;BME280;62090;52.330;9.104;2023-02-14T03:06:25;103018.34;;;3.48;100.00
3132;BME280;62090;52.330;9.104;2023-02-14T03:09:07;103023.41;;;3.48;100.00
3132;BME280;62090;52.330;9.104;2023-02-14T03:11:44;103016.03;;;3.40;100.00
3132;BME280;62090;52.330;9.104;2023-02-14T03:14:19;103000.69;;;3.29;100.00
3132;BME280;62090;52.330;9.104;2023-02-14T03:16:58;103016.19;;;3.42;100.00
3132;BME280;62090;52.330;9.104;2023-02-14T03:19:48;102992.38;;;3.30;100.00
3132;BME280;62090;52.330;9.104;2023-02-14T03:22:42;102983.94;;;3.29;100.00
3132;BME280;62090;52.330;9.104;2023-02-14T03:25:23;103000.44;;;3.45;100.00
3132;BME280;62090;52.330;9.104;2023-02-14T03:28:02;103002.06;;;3.44;100.00
3132;BME280;62090;52.330;9.104;2023-02-14T03:30:39;102996.81;;;3.51;100.00
3132;BME280;62090;52.330;9.104;2023-02-14T03:33:19;102982.53;;;3.42;100.00
3132;BME280;62090;52.330;9.104;2023-02-14T03:35:55;102984.00;;;3.39;100.00
3132;BME280;62090;52.330;9.104;2023-02-14T03:38:32;102966.09;;;3.18;100.00
3132;BME280;62090;52.330;9.104;2023-02-14T03:41:10;102984.44;;;3.25;100.00
3132;BME280;62090;52.330;9.104;2023-02-14T03:43:44;102945.13;;;2.90;100.00
3132;BME280;62090;52.330;9.104;2023-02-14T03:46:19;102985.44;;;3.09;99.46
3132;BME280;62090;52.330;9.104;2023-02-14T03:48:53;102975.41;;;3.00;100.00
3132;BME280;62090;52.330;9.104;2023-02-14T03:51:26;102968.66;;;2.90;100.00
3132;BME280;62090;52.330;9.104;2023-02-14T03:54:00;102993.31;;;3.03;100.00
3132;BME280;62090;52.330;9.104;2023-02-14T03:56:36;102963.91;;;2.93;100.00
3132;BME280;62090;52.330;9.104;2023-02-14T03:59:13;102939.44;;;2.74;99.66
3132;BME280;62090;52.330;9.104;2023-02-14T04:01:47;102985.50;;;3.00;99.92
3132;BME280;62090;52.330;9.104;2023-02-14T04:04:20;102975.75;;;2.94;99.58
3132;BME280;62090;52.330;9.104;2023-02-14T04:06:52;102970.31;;;2.90;99.16
3132;BME280;62090;52.330;9.104;2023-02-14T04:09:22;102985.50;;;3.00;98.64
3132;BME280;62090;52.330;9.104;2023-02-14T04:11:54;102969.13;;;2.86;98.33
3132;BME280;62090;52.330;9.104;2023-02-14T04:14:24;102972.84;;;2.81;98.75
3132;BME280;62090;52.330;9.104;2023-02-14T04:16:55;102983.97;;;2.83;98.82
3132;BME280;62090;52.330;9.104;2023-02-14T04:19:37;102958.78;;;2.83;98.50
3132;BME280;62090;52.330;9.104;2023-02-14T04:22:07;102983.88;;;3.01;98.29
3132;BME280;62090;52.330;9.104;2023-02-14T04:24:36;102956.03;;;2.72;98.01
3132;BME280;62090;52.330;9.104;2023-02-14T04:27:09;102978.41;;;2.96;98.49
3132;BME280;62090;52.330;9.104;2023-02-14T04:29:40;102956.84;;;2.81;97.66
3132;BME280;62090;52.330;9.104;2023-02-14T04:32:13;102949.50;;;2.74;96.61
3132;BME280;62090;52.330;9.104;2023-02-14T04:34:43;102952.78;;;2.73;97.38
3132;BME280;62090;52.330;9.104;2023-02-14T04:37:15;102968.09;;;2.84;97.99
3132;BME280;62090;52.330;9.104;2023-02-14T04:39:45;102958.06;;;2.76;97.57
3132;BME280;62090;52.330;9.104;2023-02-14T04:42:17;102971.22;;;2.82;97.28
3132;BME280;62090;52.330;9.104;2023-02-14T04:44:47;102936.53;;;2.61;97.70
3132;BME280;62090;52.330;9.104;2023-02-14T04:47:16;102964.06;;;2.68;98.44
3132;BME280;62090;52.330;9.104;2023-02-14T04:49:46;102933.44;;;2.63;97.87
3132;BME280;62090;52.330;9.104;2023-02-14T04:52:16;102964.41;;;2.81;97.47
3132;BME280;62090;52.330;9.104;2023-02-14T04:54:45;102973.06;;;2.74;97.93
3132;BME280;62090;52.330;9.104;2023-02-14T04:57:18;102967.25;;;2.75;97.89
3132;BME280;62090;52.330;9.104;2023-02-14T04:59:48;102941.41;;;2.68;97.98
3132;BME280;62090;52.330;9.104;2023-02-14T05:02:17;102958.63;;;2.82;97.09
3132;BME280;62090;52.330;9.104;2023-02-14T05:04:47;102953.19;;;2.77;97.36
3132;BME280;62090;52.330;9.104;2023-02-14T05:07:17;102946.84;;;2.72;97.35
3132;BME280;62090;52.330;9.104;2023-02-14T05:09:46;102956.75;;;2.79;96.77
3132;BME280;62090;52.330;9.104;2023-02-14T05:12:19;102942.69;;;2.73;96.83
3132;BME280;62090;52.330;9.104;2023-02-14T05:14:48;102932.13;;;2.58;97.10
3132;BME280;62090;52.330;9.104;2023-02-14T05:17:18;102949.03;;;2.78;96.18
3132;BME280;62090;52.330;9.104;2023-02-14T05:19:47;102961.94;;;2.72;96.17
3132;BME280;62090;52.330;9.104;2023-02-14T05:22:17;102964.63;;;2.65;96.75
3132;BME280;62090;52.330;9.104;2023-02-14T05:24:47;102942.31;;;2.60;96.46
3132;BME280;62090;52.330;9.104;2023-02-14T05:27:19;102961.13;;;2.63;96.53
3132;BME280;62090;52.330;9.104;2023-02-14T05:29:49;102926.91;;;2.38;96.13
3132;BME280;62090;52.330;9.104;2023-02-14T05:32:19;102937.50;;;2.44;96.23
3132;BME280;62090;52.330;9.104;2023-02-14T05:34:48;102949.19;;;2.52;95.78
3132;BME280;62090;52.330;9.104;2023-02-14T05:37:18;102960.56;;;2.57;95.82
3132;BME280;62090;52.330;9.104;2023-02-14T05:39:47;102958.19;;;2.59;95.18
3132;BME280;62090;52.330;9.104;2023-02-14T05:42:20;102959.19;;;2.61;94.89
3132;BME280;62090;52.330;9.104;2023-02-14T05:44:49;102959.50;;;2.64;94.37
3132;BME280;62090;52.330;9.104;2023-02-14T05:47:19;102921.50;;;2.52;93.92
3132;BME280;62090;52.330;9.104;2023-02-14T05:49:49;102952.63;;;2.71;93.73
3132;BME280;62090;52.330;9.104;2023-02-14T05:52:18;102940.34;;;2.66;93.60
3132;BME280;62090;52.330;9.104;2023-02-14T05:54:48;102925.31;;;2.57;93.34
3132;BME280;62090;52.330;9.104;2023-02-14T05:57:21;102938.13;;;2.69;92.85
3132;BME280;62090;52.330;9.104;2023-02-14T05:59:50;102947.78;;;2.64;92.93
3132;BME280;62090;52.330;9.104;2023-02-14T06:02:20;102946.91;;;2.64;92.36
3132;BME280;62090;52.330;9.104;2023-02-14T06:04:49;102931.56;;;2.52;91.95
3132;BME280;62090;52.330;9.104;2023-02-14T06:07:19;102936.28;;;2.58;91.87
3132;BME280;62090;52.330;9.104;2023-02-14T06:09:49;102940.75;;;2.51;91.95
3132;BME280;62090;52.330;9.104;2023-02-14T06:12:21;102964.69;;;2.57;92.11
3132;BME280;62090;52.330;9.104;2023-02-14T06:14:51;102970.66;;;2.48;93.49
3132;BME280;62090;52.330;9.104;2023-02-14T06:17:20;102962.56;;;2.42;93.41
3132;BME280;62090;52.330;9.104;2023-02-14T06:19:50;102969.63;;;2.46;93.82
3132;BME280;62090;52.330;9.104;2023-02-14T06:22:19;102965.47;;;2.47;93.78
3132;BME280;62090;52.330;9.104;2023-02-14T06:24:49;102917.81;;;2.12;94.42
3132;BME280;62090;52.330;9.104;2023-02-14T06:27:22;102974.66;;;2.46;94.01
3132;BME280;62090;52.330;9.104;2023-02-14T06:29:51;102968.31;;;2.41;94.00
3132;BME280;62090;52.330;9.104;2023-02-14T06:32:21;102948.72;;;2.20;94.28
3132;BME280;62090;52.330;9.104;2023-02-14T06:34:51;102976.03;;;2.34;94.27
3132;BME280;62090;52.330;9.104;2023-02-14T06:37:21;102871.50;;;1.75;93.98
3132;BME280;62090;52.330;9.104;2023-02-14T06:39:50;102951.50;;;2.23;93.97
3132;BME280;62090;52.330;9.104;2023-02-14T06:42:23;102964.19;;;2.33;93.26
3132;BME280;62090;52.330;9.104;2023-02-14T06:44:52;102946.53;;;2.15;92.39
3132;BME280;62090;52.330;9.104;2023-02-14T06:47:22;102953.16;;;2.14;92.57
3132;BME280;62090;52.330;9.104;2023-02-14T06:49:52;102952.44;;;2.15;92.87
3132;BME280;62090;52.330;9.104;2023-02-14T06:52:21;102990.25;;;2.34;93.90
3132;BME280;62090;52.330;9.104;2023-02-14T06:54:51;102970.44;;;2.28;93.56
3132;BME280;62090;52.330;9.104;2023-02-14T06:57:23;102969.78;;;2.39;93.77
3132;BME280;62090;52.330;9.104;2023-02-14T06:59:53;102973.66;;;2.36;94.94
3132;BME280;62090;52.330;9.104;2023-02-14T07:02:23;102961.13;;;2.27;94.62
3132;BME280;62090;52.330;9.104;2023-02-14T07:04:53;102979.53;;;2.45;95.44
3132;BME280;62090;52.330;9.104;2023-02-14T07:07:22;102975.97;;;2.51;94.90
3132;BME280;62090;52.330;9.104;2023-02-14T07:09:52;102954.13;;;2.42;94.42
3132;BME280;62090;52.330;9.104;2023-02-14T07:12:27;102981.56;;;2.58;93.03
3132;BME280;62090;52.330;9.104;2023-02-14T07:14:57;102927.44;;;2.17;93.35
3132;BME280;62090;52.330;9.104;2023-02-14T07:17:30;102899.50;;;2.05;93.77
3132;BME280;62090;52.330;9.104;2023-02-14T07:20:05;102962.81;;;2.45;93.60
3132;BME280;62090;52.330;9.104;2023-02-14T07:22:42;102981.56;;;2.58;94.92
3132;BME280;62090;52.330;9.104;2023-02-14T07:25:14;102973.03;;;2.47;95.36
3132;BME280;62090;52.330;9.104;2023-02-14T07:27:50;102963.81;;;2.56;96.34
3132;BME280;62090;52.330;9.104;2023-02-14T07:30:30;102876.34;;;2.26;95.76
3132;BME280;62090;52.330;9.104;2023-02-14T07:33:04;102933.56;;;2.65;94.83
3132;BME280;62090;52.330;9.104;2023-02-14T07:35:38;102879.88;;;2.28;94.68
3132;BME280;62090;52.330;9.104;2023-02-14T07:44:24;102801.06;;;1.92;95.45
3132;BME280;62090;52.330;9.104;2023-02-14T07:46:53;102965.53;;;2.93;95.49
3132;BME280;62090;52.330;9.104;2023-02-14T07:49:23;102963.22;;;3.05;95.15
3132;BME280;62090;52.330;9.104;2023-02-14T07:51:53;102989.47;;;3.25;94.70
3132;BME280;62090;52.330;9.104;2023-02-14T07:54:23;102951.59;;;3.15;93.98
3132;BME280;62090;52.330;9.104;2023-02-14T07:56:53;102964.28;;;3.25;94.13
3132;BME280;62090;52.330;9.104;2023-02-14T07:59:26;102986.41;;;3.38;94.02
3132;BME280;62090;52.330;9.104;2023-02-14T08:01:56;102900.78;;;2.92;94.16
3132;BME280;62090;52.330;9.104;2023-02-14T08:04:26;102965.06;;;3.34;94.32
3132;BME280;62090;52.330;9.104;2023-02-14T08:06:59;102983.97;;;3.48;93.98
3132;BME280;62090;52.330;9.104;2023-02-14T08:09:32;102934.63;;;3.23;94.35
3132;BME280;62090;52.330;9.104;2023-02-14T08:12:06;102981.84;;;3.53;94.93
3132;BME280;62090;52.330;9.104;2023-02-14T08:14:51;102909.13;;;3.57;95.37
3132;BME280;62090;52.330;9.104;2023-02-14T08:17:42;102975.31;;;3.83;94.64
3132;BME280;62090;52.330;9.104;2023-02-14T08:20:12;102965.53;;;3.68;95.04
3132;BME280;62090;52.330;9.104;2023-02-14T08:22:41;102983.78;;;3.65;95.42
3132;BME280;62090;52.330;9.104;2023-02-14T08:25:11;102971.00;;;3.54;96.42
3132;BME280;62090;52.330;9.104;2023-02-14T08:27:41;102775.41;;;2.32;97.66
3132;BME280;62090;52.330;9.104;2023-02-14T08:30:14;102967.31;;;3.69;96.36
3132;BME280;62090;52.330;9.104;2023-02-14T08:32:44;102948.34;;;3.54;98.01
3132;BME280;62090;52.330;9.104;2023-02-14T08:35:14;102977.44;;;3.79;97.11
3132;BME280;62090;52.330;9.104;2023-02-14T08:37:44;102950.94;;;3.74;96.87
3132;BME280;62090;52.330;9.104;2023-02-14T08:40:13;102978.03;;;3.95;97.43
3132;BME280;62090;52.330;9.104;2023-02-14T08:42:43;102929.16;;;3.74;97.60
3132;BME280;62090;52.330;9.104;2023-02-14T08:45:16;102949.03;;;4.00;98.16
3132;BME280;62090;52.330;9.104;2023-02-14T08:47:59;102856.94;;;3.56;97.65
3132;BME280;62090;52.330;9.104;2023-02-14T08:54:09;102805.41;;;4.22;99.21
3132;BME280;62090;52.330;9.104;2023-02-14T09:04:17;102942.63;;;4.63;100.00
3132;BME280;62090;52.330;9.104;2023-02-14T09:20:30;102955.72;;;5.30;100.00
3132;BME280;62090;52.330;9.104;2023-02-14T09:23:03;102945.50;;;5.38;100.00
3132;BME280;62090;52.330;9.104;2023-02-14T09:25:40;102781.16;;;4.54;100.00
3132;BME280;62090;52.330;9.104;2023-02-14T09:28:19;102790.38;;;4.64;100.00
3132;BME280;62090;52.330;9.104;2023-02-14T09:31:07;102920.41;;;5.51;100.00
3132;BME280;62090;52.330;9.104;2023-02-14T09:33:43;102891.50;;;5.38;100.00
3132;BME280;62090;52.330;9.104;2023-02-14T10:27:09;102808.22;;;8.40;92.62
3132;BME280;62090;52.330;9.104;2023-02-14T10:30:27;102744.22;;;7.83;95.81
3132;BME280;62090;52.330;9.104;2023-02-14T10:33:44;102786.50;;;8.07;96.98
3132;BME280;62090;52.330;9.104;2023-02-14T10:37:14;102807.38;;;8.28;96.60
3132;BME280;62090;52.330;9.104;2023-02-14T10:40:24;102556.59;;;6.97;96.57
3132;BME280;62090;52.330;9.104;2023-02-14T10:56:31;102877.53;;;9.42;97.33
3132;BME280;62090;52.330;9.104;2023-02-14T11:00:38;102722.41;;;8.63;96.44
3132;BME280;62090;52.330;9.104;2023-02-14T11:09:11;102890.75;;;10.03;93.53
3132;BME280;62090;52.330;9.104;2023-02-14T11:12:48;102705.94;;;9.23;91.14
3132;BME280;62090;52.330;9.104;2023-02-14T11:16:38;102852.78;;;10.21;88.16
3132;BME280;62090;52.330;9.104;2023-02-14T11:20:19;102841.28;;;10.28;88.49
3132;BME280;62090;52.330;9.104;2023-02-14T11:26:24;102784.34;;;10.42;86.87
3132;BME280;62090;52.330;9.104;2023-02-14T11:28:59;102799.72;;;10.58;84.03
3132;BME280;62090;52.330;9.104;2023-02-14T11:31:32;102837.34;;;10.91;82.72
3132;BME280;62090;52.330;9.104;2023-02-14T11:34:04;102830.31;;;10.87;82.47
3132;BME280;62090;52.330;9.104;2023-02-14T11:36:39;102819.41;;;10.90;82.34
3132;BME280;62090;52.330;9.104;2023-02-14T11:39:19;102844.97;;;11.06;82.62
3132;BME280;62090;52.330;9.104;2023-02-14T11:41:53;102821.47;;;11.12;81.20
3132;BME280;62090;52.330;9.104;2023-02-14T11:44:27;102826.91;;;11.18;80.80
3132;BME280;62090;52.330;9.104;2023-02-14T11:47:17;102798.75;;;11.16;79.97
3132;BME280;62090;52.330;9.104;2023-02-14T11:49:56;102791.97;;;11.17;80.26
3132;BME280;62090;52.330;9.104;2023-02-14T11:52:27;102796.88;;;11.28;80.56
3132;BME280;62090;52.330;9.104;2023-02-14T11:54:59;102815.66;;;11.45;78.74
3132;BME280;62090;52.330;9.104;2023-02-14T11:57:32;102801.13;;;11.44;78.91
3132;BME280;62090;52.330;9.104;2023-02-14T12:00:14;102808.81;;;11.60;79.15
3132;BME280;62090;52.330;9.104;2023-02-14T12:02:46;102756.22;;;11.31;79.12
3132;BME280;62090;52.330;9.104;2023-02-14T12:05:19;102796.06;;;11.60;79.72
3132;BME280;62090;52.330;9.104;2023-02-14T12:07:51;102780.41;;;11.54;78.69
3132;BME280;62090;52.330;9.104;2023-02-14T12:10:27;102726.16;;;11.26;77.87
3132;BME280;62090;52.330;9.104;2023-02-14T12:12:59;102787.13;;;11.68;78.69
3132;BME280;62090;52.330;9.104;2023-02-14T12:15:37;102794.50;;;11.78;78.25
3132;BME280;62090;52.330;9.104;2023-02-14T12:18:32;102757.03;;;11.63;77.03
3132;BME280;62090;52.330;9.104;2023-02-14T12:21:17;102767.03;;;11.74;77.53
3132;BME280;62090;52.330;9.104;2023-02-14T12:23:55;102786.59;;;11.90;77.19
3132;BME280;62090;52.330;9.104;2023-02-14T12:26:30;102768.00;;;11.76;77.45
3132;BME280;62090;52.330;9.104;2023-02-14T12:29:08;102784.28;;;11.95;77.78
3132;BME280;62090;52.330;9.104;2023-02-14T12:31:43;102755.06;;;11.90;76.55
3132;BME280;62090;52.330;9.104;2023-02-14T12:34:16;102766.22;;;12.08;76.00
3132;BME280;62090;52.330;9.104;2023-02-14T12:37:12;102759.88;;;12.17;75.82
3132;BME280;62090;52.330;9.104;2023-02-14T12:39:58;102733.22;;;12.12;75.66
3132;BME280;62090;52.330;9.104;2023-02-14T12:42:42;102745.81;;;12.25;75.00
3132;BME280;62090;52.330;9.104;2023-02-14T12:45:20;102726.34;;;12.11;75.58
3132;BME280;62090;52.330;9.104;2023-02-14T12:48:03;102732.94;;;12.24;75.35
3132;BME280;62090;52.330;9.104;2023-02-14T12:50:46;102738.28;;;12.28;75.22
3132;BME280;62090;52.330;9.104;2023-02-14T12:53:34;102728.56;;;12.21;74.10
3132;BME280;62090;52.330;9.104;2023-02-14T12:56:10;102755.25;;;12.44;74.46
3132;BME280;62090;52.330;9.104;2023-02-14T12:58:55;102748.78;;;12.51;73.49
3132;BME280;62090;52.330;9.104;2023-02-14T13:01:39;102692.13;;;12.25;73.78
3132;BME280;62090;52.330;9.104;2023-02-14T13:04:48;102687.03;;;12.25;72.83
3132;BME280;62090;52.330;9.104;2023-02-14T13:07:31;102688.63;;;12.23;73.96
3132;BME280;62090;52.330;9.104;2023-02-14T13:10:13;102718.53;;;12.42;72.31
3132;BME280;62090;52.330;9.104;2023-02-14T13:12:47;102725.16;;;12.56;73.61
3132;BME280;62090;52.330;9.104;2023-02-14T13:15:24;102731.47;;;12.63;73.50
3132;BME280;62090;52.330;9.104;2023-02-14T13:18:00;102732.59;;;12.69;72.88
3132;BME280;62090;52.330;9.104;2023-02-14T13:20:39;102727.00;;;12.77;73.29
3132;BME280;62090;52.330;9.104;2023-02-14T13:23:15;102659.06;;;12.46;73.19
3132;BME280;62090;52.330;9.104;2023-02-14T13:25:48;102698.44;;;12.67;72.15
3132;BME280;62090;52.330;9.104;2023-02-14T13:28:20;102660.94;;;12.50;72.43
3132;BME280;62090;52.330;9.104;2023-02-14T13:30:52;102705.47;;;12.91;73.31
3132;BME280;62090;52.330;9.104;2023-02-14T13:33:27;102694.16;;;12.86;72.29
3132;BME280;62090;52.330;9.104;2023-02-14T13:36:06;102700.50;;;12.94;72.13
3132;BME280;62090;52.330;9.104;2023-02-14T13:38:41;102692.28;;;13.01;71.18
3132;BME280;62090;52.330;9.104;2023-02-14T13:41:13;102687.44;;;13.07;71.52
3132;BME280;62090;52.330;9.104;2023-02-14T13:43:44;102647.97;;;12.83;71.18
3132;BME280;62090;52.330;9.104;2023-02-14T13:46:15;102654.38;;;12.92;70.69
3132;BME280;62090;52.330;9.104;2023-02-14T13:48:56;102673.06;;;13.09;70.97
3132;BME280;62090;52.330;9.104;2023-02-14T13:51:46;102671.72;;;13.17;69.63
3132;BME280;62090;52.330;9.104;2023-02-14T13:54:25;102659.88;;;13.19;70.10
3132;BME280;62090;52.330;9.104;2023-02-14T13:56:57;102667.56;;;13.19;70.54
3132;BME280;62090;52.330;9.104;2023-02-14T13:59:29;102667.97;;;13.28;70.22
3132;BME280;62090;52.330;9.104;2023-02-14T14:02:29;102622.09;;;12.96;70.36
3132;BME280;62090;52.330;9.104;2023-02-14T14:08:36;102571.69;;;12.74;70.08
3132;BME280;62090;52.330;9.104;2023-02-14T14:11:11;102664.59;;;13.29;70.59
3132;BME280;62090;52.330;9.104;2023-02-14T14:14:02;102660.63;;;13.36;69.87
3132;BME280;62090;52.330;9.104;2023-02-14T14:16:33;102633.47;;;13.20;69.28
3132;BME280;62090;52.330;9.104;2023-02-14T14:19:33;102631.84;;;13.22;68.87
3132;BME280;62090;52.330;9.104;2023-02-14T14:22:00;102658.06;;;13.36;70.01
3132;BME280;62090;52.330;9.104;2023-02-14T14:24:33;102636.34;;;13.28;69.42
3132;BME280;62090;52.330;9.104;2023-02-14T14:27:06;102631.47;;;13.32;69.69
3132;BME280;62090;52.330;9.104;2023-02-14T14:29:45;102621.06;;;13.29;69.40
3132;BME280;62090;52.330;9.104;2023-02-14T14:32:17;102653.81;;;13.56;68.49
3132;BME280;62090;52.330;9.104;2023-02-14T14:34:49;102633.63;;;13.42;69.00
3132;BME280;62090;52.330;9.104;2023-02-14T14:37:20;102658.81;;;13.52;69.07
3132;BME280;62090;52.330;9.104;2023-02-14T14:39:55;102628.06;;;13.33;68.34
3132;BME280;62090;52.330;9.104;2023-02-14T14:42:28;102651.25;;;13.56;67.73
3132;BME280;62090;52.330;9.104;2023-02-14T14:45:00;102630.28;;;13.45;67.33
3132;BME280;62090;52.330;9.104;2023-02-14T14:47:36;102643.19;;;13.67;66.51
3132;BME280;62090;52.330;9.104;2023-02-14T14:50:14;102626.50;;;13.56;67.41
3132;BME280;62090;52.330;9.104;2023-02-14T14:52:46;102627.31;;;13.55;67.88
3132;BME280;62090;52.330;9.104;2023-02-14T14:55:22;102572.34;;;13.28;68.07
3132;BME280;62090;52.330;9.104;2023-02-14T14:57:55;102591.50;;;13.36;67.02
3132;BME280;62090;52.330;9.104;2023-02-14T15:00:26;102617.81;;;13.52;66.32
3132;BME280;62090;52.330;9.104;2023-02-14T15:03:00;102613.50;;;13.51;66.09
3132;BME280;62090;52.330;9.104;2023-02-14T15:05:33;102630.13;;;13.61;66.90
3132;BME280;62090;52.330;9.104;2023-02-14T15:08:19;102612.69;;;13.52;66.73
3132;BME280;62090;52.330;9.104;2023-02-14T15:10:55;102629.78;;;13.53;67.82
3132;BME280;62090;52.330;9.104;2023-02-14T15:13:34;102626.31;;;13.51;67.55
3132;BME280;62090;52.330;9.104;2023-02-14T15:16:17;102608.22;;;13.48;67.21
3132;BME280;62090;52.330;9.104;2023-02-14T15:18:48;102623.69;;;13.50;67.83
3132;BME280;62090;52.330;9.104;2023-02-14T15:21:19;102621.19;;;13.51;67.06
3132;BME280;62090;52.330;9.104;2023-02-14T15:23:50;102565.97;;;13.18;67.16
3132;BME280;62090;52.330;9.104;2023-02-14T15:26:27;102609.69;;;13.42;67.32
3132;BME280;62090;52.330;9.104;2023-02-14T15:28:59;102607.72;;;13.36;67.84
3132;BME280;62090;52.330;9.104;2023-02-14T15:31:32;102549.84;;;13.01;68.02
3132;BME280;62090;52.330;9.104;2023-02-14T15:34:04;102514.72;;;12.78;68.64
3132;BME280;62090;52.330;9.104;2023-02-14T15:36:35;102566.84;;;12.99;69.37
3132;BME280;62090;52.330;9.104;2023-02-14T15:39:07;102586.09;;;13.10;69.66
3132;BME280;62090;52.330;9.104;2023-02-14T15:41:44;102576.47;;;13.05;69.82
3132;BME280;62090;52.330;9.104;2023-02-14T15:44:18;102602.34;;;13.11;70.38